Edward G. Pitka Sr Airport
PAGA : now visible

Airfield :











YOU CAN JOIN US ON...

 
LOGIN :

Register | Disclaimer

   EN    FR    IT 

 









Legend :    VFR   Marginal VFR   IFR   Intensive IFR   Very Intensive IFR
Visi :
Ceiling :
>= 8 km
>= 3000ft
5 to 8 km
1000 to 3000 ft
1500m to 5 km
500 to 1000 ft
800 to 1500m
200 to 500 ft
< 800m
< 200 ft
Symbols :   Thunderstorms  Fog  Heavy snow  Heavy precipitations  Wind > 20 kt






- Airport Elevation : 153 ft
- IATA code : GAL


PAGA - Edward G. Pitka Sr

CURRENT METAR :
  • 172156Z AUTO 00000KT 10SM BKN070 BKN090 M15/M17 A2956 RMK AO2 SLP014 T11501167 FZRANO

EXPIRED METARs :
  • 172056Z AUTO 00000KT 10SM OVC070 M17/M19 A2955 RMK AO2 SLP010 T11721189 52017 FZRANO
  • 171956Z AUTO 00000KT 10SM SCT080 M18/M19 A2953 RMK AO2 SLP003 T11781194 FZRANO

TAF PAGA
Valid from the 17 at 18:00 until the 18 at 18:00 UTC


171728Z 1718/1818 00000KT P6SM FEW090
FM180200 09004KT 4SM -SN BR OVC015
FM180500 10004KT 1 1/2SM -SN BR OVC015
FM181200 10005KT 5SM -SN OVC015
PAZA FIR / North America



MET'MAP, your aeronautical weather chart ! - Copyright ORBIFLY December 2007 - Disclaimer

ORBIFLY MET'MAP TEAM :

Programming & Development : Alexandra Zaïnal
Concept & original design : Baudouin d'Aumeries
Assistance for programming : Marc-Olivier Méhu
Technical & hardware support : Manuel Goepfert

Contact : metmap@orbifly.com




SOURCES & CREDITS :

   NOAA       Earth
Advisory